sensor_id;sensor_type;location;lat;lon;timestamp;P1;durP1;ratioP1;P2;durP2;ratioP2
54745;SDS011;40640;48.130;11.356;2023-08-06T00:02:28;8.55;;;4.25;;
54745;SDS011;40640;48.130;11.356;2023-08-06T00:06:32;5.05;;;3.80;;
54745;SDS011;40640;48.130;11.356;2023-08-06T00:10:34;5.38;;;4.00;;
54745;SDS011;40640;48.130;11.356;2023-08-06T00:14:39;7.70;;;3.28;;
54745;SDS011;40640;48.130;11.356;2023-08-06T00:18:42;4.60;;;3.00;;
54745;SDS011;40640;48.130;11.356;2023-08-06T00:22:45;6.65;;;3.40;;
54745;SDS011;40640;48.130;11.356;2023-08-06T00:26:47;4.95;;;3.95;;
54745;SDS011;40640;48.130;11.356;2023-08-06T00:30:53;4.32;;;3.75;;
54745;SDS011;40640;48.130;11.356;2023-08-06T00:34:56;5.43;;;3.75;;
54745;SDS011;40640;48.130;11.356;2023-08-06T00:38:59;6.28;;;4.82;;
54745;SDS011;40640;48.130;11.356;2023-08-06T00:43:02;7.50;;;5.38;;
54745;SDS011;40640;48.130;11.356;2023-08-06T00:47:07;7.90;;;5.28;;
54745;SDS011;40640;48.130;11.356;2023-08-06T00:51:10;10.38;;;5.75;;
54745;SDS011;40640;48.130;11.356;2023-08-06T00:55:14;11.43;;;7.00;;
54745;SDS011;40640;48.130;11.356;2023-08-06T00:59:17;8.77;;;6.15;;
54745;SDS011;40640;48.130;11.356;2023-08-06T01:03:22;8.48;;;6.13;;
54745;SDS011;40640;48.130;11.356;2023-08-06T01:07:29;14.40;;;6.63;;
54745;SDS011;40640;48.130;11.356;2023-08-06T01:11:42;8.10;;;6.50;;
54745;SDS011;40640;48.130;11.356;2023-08-06T01:15:53;8.55;;;6.28;;
54745;SDS011;40640;48.130;11.356;2023-08-06T01:20:00;8.88;;;6.22;;
54745;SDS011;40640;48.130;11.356;2023-08-06T01:24:05;9.68;;;6.10;;
54745;SDS011;40640;48.130;11.356;2023-08-06T01:28:09;9.50;;;6.13;;
54745;SDS011;40640;48.130;11.356;2023-08-06T01:32:16;6.70;;;4.85;;
54745;SDS011;40640;48.130;11.356;2023-08-06T01:36:20;9.82;;;5.47;;
54745;SDS011;40640;48.130;11.356;2023-08-06T01:40:25;10.23;;;4.85;;
54745;SDS011;40640;48.130;11.356;2023-08-06T01:44:29;7.90;;;5.22;;
54745;SDS011;40640;48.130;11.356;2023-08-06T01:48:34;6.95;;;4.63;;
54745;SDS011;40640;48.130;11.356;2023-08-06T01:52:37;5.32;;;4.35;;
54745;SDS011;40640;48.130;11.356;2023-08-06T01:56:42;5.38;;;4.18;;
54745;SDS011;40640;48.130;11.356;2023-08-06T02:00:45;5.50;;;3.95;;
54745;SDS011;40640;48.130;11.356;2023-08-06T02:04:48;5.25;;;3.40;;
54745;SDS011;40640;48.130;11.356;2023-08-06T02:08:51;4.38;;;3.30;;
54745;SDS011;40640;48.130;11.356;2023-08-06T02:12:55;3.97;;;3.45;;
54745;SDS011;40640;48.130;11.356;2023-08-06T02:16:58;4.57;;;3.45;;
54745;SDS011;40640;48.130;11.356;2023-08-06T02:21:01;4.72;;;3.65;;
54745;SDS011;40640;48.130;11.356;2023-08-06T02:25:04;4.55;;;3.40;;
54745;SDS011;40640;48.130;11.356;2023-08-06T02:29:09;4.60;;;3.28;;
54745;SDS011;40640;48.130;11.356;2023-08-06T02:33:12;3.90;;;3.40;;
54745;SDS011;40640;48.130;11.356;2023-08-06T02:37:14;6.70;;;3.20;;
54745;SDS011;40640;48.130;11.356;2023-08-06T02:41:19;4.45;;;3.00;;
54745;SDS011;40640;48.130;11.356;2023-08-06T02:45:23;5.45;;;3.28;;
54745;SDS011;40640;48.130;11.356;2023-08-06T02:49:26;4.93;;;3.33;;
54745;SDS011;40640;48.130;11.356;2023-08-06T02:53:30;4.75;;;3.60;;
54745;SDS011;40640;48.130;11.356;2023-08-06T03:01:40;7.05;;;3.97;;
54745;SDS011;40640;48.130;11.356;2023-08-06T03:05:51;9.70;;;3.55;;
54745;SDS011;40640;48.130;11.356;2023-08-06T03:10:06;10.35;;;4.28;;
54745;SDS011;40640;48.130;11.356;2023-08-06T03:14:09;3.65;;;3.28;;
54745;SDS011;40640;48.130;11.356;2023-08-06T03:18:15;5.45;;;3.50;;
54745;SDS011;40640;48.130;11.356;2023-08-06T03:22:18;3.45;;;3.03;;
54745;SDS011;40640;48.130;11.356;2023-08-06T03:26:21;4.30;;;3.05;;
54745;SDS011;40640;48.130;11.356;2023-08-06T03:30:24;4.88;;;3.17;;
54745;SDS011;40640;48.130;11.356;2023-08-06T03:34:30;4.53;;;3.35;;
54745;SDS011;40640;48.130;11.356;2023-08-06T03:38:33;7.43;;;3.00;;
54745;SDS011;40640;48.130;11.356;2023-08-06T03:42:39;4.80;;;2.90;;
54745;SDS011;40640;48.130;11.356;2023-08-06T03:46:42;4.25;;;2.88;;
54745;SDS011;40640;48.130;11.356;2023-08-06T03:50:47;4.00;;;2.90;;
54745;SDS011;40640;48.130;11.356;2023-08-06T03:58:54;3.22;;;2.47;;
54745;SDS011;40640;48.130;11.356;2023-08-06T04:02:58;6.35;;;2.97;;
54745;SDS011;40640;48.130;11.356;2023-08-06T04:07:04;3.83;;;2.92;;
54745;SDS011;40640;48.130;11.356;2023-08-06T04:11:07;4.75;;;2.42;;
54745;SDS011;40640;48.130;11.356;2023-08-06T04:15:10;4.05;;;2.65;;
54745;SDS011;40640;48.130;11.356;2023-08-06T04:19:13;2.90;;;2.30;;
54745;SDS011;40640;48.130;11.356;2023-08-06T04:23:17;5.20;;;2.80;;
54745;SDS011;40640;48.130;11.356;2023-08-06T04:27:20;6.05;;;2.35;;
54745;SDS011;40640;48.130;11.356;2023-08-06T04:31:24;4.07;;;2.45;;
54745;SDS011;40640;48.130;11.356;2023-08-06T04:35:27;3.38;;;2.70;;
54745;SDS011;40640;48.130;11.356;2023-08-06T04:39:32;3.60;;;2.80;;
54745;SDS011;40640;48.130;11.356;2023-08-06T04:43:35;2.95;;;2.33;;
54745;SDS011;40640;48.130;11.356;2023-08-06T04:47:38;6.70;;;2.72;;
54745;SDS011;40640;48.130;11.356;2023-08-06T04:51:41;4.05;;;2.20;;
54745;SDS011;40640;48.130;11.356;2023-08-06T04:55:46;5.70;;;2.60;;
54745;SDS011;40640;48.130;11.356;2023-08-06T04:59:48;4.15;;;2.30;;
54745;SDS011;40640;48.130;11.356;2023-08-06T05:03:51;4.70;;;2.75;;
54745;SDS011;40640;48.130;11.356;2023-08-06T05:07:55;7.38;;;2.53;;
54745;SDS011;40640;48.130;11.356;2023-08-06T05:12:01;4.18;;;2.83;;
54745;SDS011;40640;48.130;11.356;2023-08-06T05:16:06;2.92;;;2.50;;
54745;SDS011;40640;48.130;11.356;2023-08-06T05:20:09;2.42;;;2.13;;
54745;SDS011;40640;48.130;11.356;2023-08-06T05:24:13;4.68;;;2.28;;
54745;SDS011;40640;48.130;11.356;2023-08-06T05:28:18;2.50;;;1.92;;
54745;SDS011;40640;48.130;11.356;2023-08-06T05:32:20;4.25;;;2.65;;
54745;SDS011;40640;48.130;11.356;2023-08-06T05:36:23;4.05;;;2.28;;
54745;SDS011;40640;48.130;11.356;2023-08-06T05:40:30;3.45;;;2.30;;
54745;SDS011;40640;48.130;11.356;2023-08-06T05:44:37;4.63;;;2.15;;
54745;SDS011;40640;48.130;11.356;2023-08-06T05:48:40;2.92;;;2.30;;
54745;SDS011;40640;48.130;11.356;2023-08-06T05:52:42;2.65;;;1.70;;
54745;SDS011;40640;48.130;11.356;2023-08-06T05:56:45;4.18;;;1.77;;
54745;SDS011;40640;48.130;11.356;2023-08-06T06:00:50;3.22;;;1.90;;
54745;SDS011;40640;48.130;11.356;2023-08-06T06:04:52;2.33;;;1.95;;
54745;SDS011;40640;48.130;11.356;2023-08-06T06:08:55;6.90;;;1.90;;
54745;SDS011;40640;48.130;11.356;2023-08-06T06:12:58;3.75;;;1.83;;
54745;SDS011;40640;48.130;11.356;2023-08-06T06:17:03;1.48;;;1.20;;
54745;SDS011;40640;48.130;11.356;2023-08-06T06:21:06;1.73;;;1.30;;
54745;SDS011;40640;48.130;11.356;2023-08-06T06:25:09;2.30;;;1.52;;
54745;SDS011;40640;48.130;11.356;2023-08-06T06:29:12;2.45;;;1.60;;
54745;SDS011;40640;48.130;11.356;2023-08-06T06:33:16;1.98;;;1.50;;
54745;SDS011;40640;48.130;11.356;2023-08-06T06:37:19;3.65;;;1.55;;
54745;SDS011;40640;48.130;11.356;2023-08-06T06:41:22;3.83;;;1.95;;
54745;SDS011;40640;48.130;11.356;2023-08-06T06:45:25;2.30;;;1.40;;
54745;SDS011;40640;48.130;11.356;2023-08-06T06:49:29;4.78;;;1.30;;
54745;SDS011;40640;48.130;11.356;2023-08-06T06:53:32;2.55;;;1.27;;
54745;SDS011;40640;48.130;11.356;2023-08-06T06:57:35;2.63;;;1.00;;
54745;SDS011;40640;48.130;11.356;2023-08-06T07:01:38;2.90;;;0.98;;
54745;SDS011;40640;48.130;11.356;2023-08-06T07:05:43;5.95;;;1.15;;
54745;SDS011;40640;48.130;11.356;2023-08-06T07:09:47;1.27;;;0.88;;
54745;SDS011;40640;48.130;11.356;2023-08-06T07:13:50;3.13;;;1.10;;
54745;SDS011;40640;48.130;11.356;2023-08-06T07:17:59;1.92;;;0.82;;
54745;SDS011;40640;48.130;11.356;2023-08-06T07:22:04;2.60;;;1.27;;
54745;SDS011;40640;48.130;11.356;2023-08-06T07:26:07;1.13;;;0.90;;
54745;SDS011;40640;48.130;11.356;2023-08-06T07:30:10;1.52;;;1.38;;
54745;SDS011;40640;48.130;11.356;2023-08-06T07:34:13;2.20;;;1.15;;
54745;SDS011;40640;48.130;11.356;2023-08-06T07:38:18;1.17;;;0.95;;
54745;SDS011;40640;48.130;11.356;2023-08-06T07:42:21;5.00;;;2.05;;
54745;SDS011;40640;48.130;11.356;2023-08-06T07:46:24;2.72;;;1.10;;
54745;SDS011;40640;48.130;11.356;2023-08-06T07:50:27;2.58;;;1.30;;
54745;SDS011;40640;48.130;11.356;2023-08-06T07:54:31;3.13;;;1.00;;
54745;SDS011;40640;48.130;11.356;2023-08-06T07:58:34;3.67;;;0.90;;
54745;SDS011;40640;48.130;11.356;2023-08-06T08:02:37;1.88;;;0.80;;
54745;SDS011;40640;48.130;11.356;2023-08-06T08:06:44;1.13;;;0.82;;
54745;SDS011;40640;48.130;11.356;2023-08-06T08:10:48;1.75;;;0.88;;
54745;SDS011;40640;48.130;11.356;2023-08-06T08:14:51;1.58;;;0.75;;
54745;SDS011;40640;48.130;11.356;2023-08-06T08:18:54;1.27;;;0.80;;
54745;SDS011;40640;48.130;11.356;2023-08-06T08:22:58;1.73;;;0.50;;
54745;SDS011;40640;48.130;11.356;2023-08-06T08:27:05;1.83;;;0.70;;
54745;SDS011;40640;48.130;11.356;2023-08-06T08:31:08;4.10;;;0.60;;
54745;SDS011;40640;48.130;11.356;2023-08-06T08:35:13;2.03;;;0.75;;
54745;SDS011;40640;48.130;11.356;2023-08-06T08:39:17;0.68;;;0.38;;
54745;SDS011;40640;48.130;11.356;2023-08-06T08:43:22;3.75;;;0.60;;
54745;SDS011;40640;48.130;11.356;2023-08-06T08:47:25;0.60;;;0.27;;
54745;SDS011;40640;48.130;11.356;2023-08-06T08:51:28;2.53;;;0.40;;
54745;SDS011;40640;48.130;11.356;2023-08-06T08:55:32;0.38;;;0.32;;
54745;SDS011;40640;48.130;11.356;2023-08-06T08:59:36;1.83;;;0.45;;
54745;SDS011;40640;48.130;11.356;2023-08-06T09:03:39;2.72;;;0.40;;
54745;SDS011;40640;48.130;11.356;2023-08-06T09:07:46;4.07;;;0.60;;
54745;SDS011;40640;48.130;11.356;2023-08-06T09:11:51;0.90;;;0.20;;
54745;SDS011;40640;48.130;11.356;2023-08-06T09:15:58;0.65;;;0.15;;
54745;SDS011;40640;48.130;11.356;2023-08-06T09:20:08;0.15;;;0.15;;
54745;SDS011;40640;48.130;11.356;2023-08-06T09:24:12;0.25;;;0.25;;
54745;SDS011;40640;48.130;11.356;2023-08-06T09:28:15;1.67;;;0.30;;
54745;SDS011;40640;48.130;11.356;2023-08-06T09:32:19;1.45;;;0.20;;
54745;SDS011;40640;48.130;11.356;2023-08-06T09:36:22;1.38;;;0.40;;
54745;SDS011;40640;48.130;11.356;2023-08-06T09:40:26;2.08;;;0.40;;
54745;SDS011;40640;48.130;11.356;2023-08-06T09:44:30;1.08;;;0.40;;
54745;SDS011;40640;48.130;11.356;2023-08-06T09:48:35;0.65;;;0.28;;
54745;SDS011;40640;48.130;11.356;2023-08-06T09:52:38;0.38;;;0.10;;
54745;SDS011;40640;48.130;11.356;2023-08-06T09:56:41;1.25;;;0.52;;
54745;SDS011;40640;48.130;11.356;2023-08-06T10:00:45;0.30;;;0.17;;
54745;SDS011;40640;48.130;11.356;2023-08-06T10:04:49;3.25;;;0.28;;
54745;SDS011;40640;48.130;11.356;2023-08-06T10:08:56;2.75;;;0.20;;
54745;SDS011;40640;48.130;11.356;2023-08-06T10:12:59;0.10;;;0.10;;
54745;SDS011;40640;48.130;11.356;2023-08-06T10:17:03;2.05;;;0.30;;
54745;SDS011;40640;48.130;11.356;2023-08-06T10:21:10;1.27;;;0.40;;
54745;SDS011;40640;48.130;11.356;2023-08-06T10:25:16;0.57;;;0.20;;
54745;SDS011;40640;48.130;11.356;2023-08-06T10:29:35;1.13;;;0.35;;
54745;SDS011;40640;48.130;11.356;2023-08-06T10:33:40;2.60;;;0.25;;
54745;SDS011;40640;48.130;11.356;2023-08-06T10:37:46;0.90;;;0.20;;
54745;SDS011;40640;48.130;11.356;2023-08-06T10:41:49;2.30;;;0.17;;
54745;SDS011;40640;48.130;11.356;2023-08-06T10:45:53;1.00;;;0.25;;
54745;SDS011;40640;48.130;11.356;2023-08-06T10:49:56;0.30;;;0.13;;
54745;SDS011;40640;48.130;11.356;2023-08-06T10:54:01;5.35;;;0.55;;
54745;SDS011;40640;48.130;11.356;2023-08-06T10:58:05;0.22;;;0.03;;
54745;SDS011;40640;48.130;11.356;2023-08-06T11:02:07;4.75;;;0.30;;
54745;SDS011;40640;48.130;11.356;2023-08-06T11:06:16;0.50;;;0.20;;
54745;SDS011;40640;48.130;11.356;2023-08-06T11:10:21;0.20;;;0.17;;
54745;SDS011;40640;48.130;11.356;2023-08-06T11:14:24;0.20;;;0.10;;
54745;SDS011;40640;48.130;11.356;2023-08-06T11:18:28;0.25;;;0.17;;
54745;SDS011;40640;48.130;11.356;2023-08-06T11:22:31;0.15;;;0.10;;
54745;SDS011;40640;48.130;11.356;2023-08-06T11:26:36;0.10;;;0.00;;
54745;SDS011;40640;48.130;11.356;2023-08-06T11:30:41;0.40;;;0.10;;
54745;SDS011;40640;48.130;11.356;2023-08-06T11:34:44;0.13;;;0.13;;
54745;SDS011;40640;48.130;11.356;2023-08-06T11:38:47;0.20;;;0.10;;
54745;SDS011;40640;48.130;11.356;2023-08-06T11:42:52;0.40;;;0.10;;
54745;SDS011;40640;48.130;11.356;2023-08-06T11:46:55;1.33;;;0.10;;
54745;SDS011;40640;48.130;11.356;2023-08-06T11:51:00;0.75;;;0.20;;
54745;SDS011;40640;48.130;11.356;2023-08-06T11:55:04;0.55;;;0.15;;
54745;SDS011;40640;48.130;11.356;2023-08-06T11:59:10;0.10;;;0.10;;
54745;SDS011;40640;48.130;11.356;2023-08-06T12:03:13;0.65;;;0.03;;
54745;SDS011;40640;48.130;11.356;2023-08-06T12:07:18;0.17;;;0.10;;
54745;SDS011;40640;48.130;11.356;2023-08-06T12:11:21;0.00;;;0.00;;
54745;SDS011;40640;48.130;11.356;2023-08-06T12:15:27;0.40;;;0.20;;
54745;SDS011;40640;48.130;11.356;2023-08-06T12:19:33;1.23;;;0.20;;
54745;SDS011;40640;48.130;11.356;2023-08-06T12:23:37;0.20;;;0.10;;
54745;SDS011;40640;48.130;11.356;2023-08-06T12:27:40;0.45;;;0.10;;
54745;SDS011;40640;48.130;11.356;2023-08-06T12:31:46;0.10;;;0.10;;
54745;SDS011;40640;48.130;11.356;2023-08-06T12:35:50;1.92;;;0.20;;
54745;SDS011;40640;48.130;11.356;2023-08-06T12:39:54;1.23;;;0.30;;
54745;SDS011;40640;48.130;11.356;2023-08-06T12:43:57;1.75;;;0.20;;
54745;SDS011;40640;48.130;11.356;2023-08-06T12:48:02;0.03;;;0.03;;
54745;SDS011;40640;48.130;11.356;2023-08-06T12:52:05;1.27;;;0.10;;
54745;SDS011;40640;48.130;11.356;2023-08-06T12:56:10;0.10;;;0.10;;
54745;SDS011;40640;48.130;11.356;2023-08-06T13:00:14;0.17;;;0.17;;
54745;SDS011;40640;48.130;11.356;2023-08-06T13:04:19;2.38;;;0.10;;
54745;SDS011;40640;48.130;11.356;2023-08-06T13:08:23;0.30;;;0.22;;
54745;SDS011;40640;48.130;11.356;2023-08-06T13:12:26;0.77;;;0.77;;
54745;SDS011;40640;48.130;11.356;2023-08-06T13:16:29;1.40;;;0.98;;
54745;SDS011;40640;48.130;11.356;2023-08-06T13:20:33;0.00;;;0.00;;
54745;SDS011;40640;48.130;11.356;2023-08-06T13:24:36;0.13;;;0.10;;
54745;SDS011;40640;48.130;11.356;2023-08-06T13:28:39;0.20;;;0.17;;
54745;SDS011;40640;48.130;11.356;2023-08-06T13:32:42;3.33;;;0.13;;
54745;SDS011;40640;48.130;11.356;2023-08-06T13:36:47;0.30;;;0.10;;
54745;SDS011;40640;48.130;11.356;2023-08-06T13:40:51;3.30;;;0.20;;
54745;SDS011;40640;48.130;11.356;2023-08-06T13:44:54;0.57;;;0.10;;
54745;SDS011;40640;48.130;11.356;2023-08-06T13:49:00;0.40;;;0.20;;
54745;SDS011;40640;48.130;11.356;2023-08-06T13:53:05;0.90;;;0.30;;
54745;SDS011;40640;48.130;11.356;2023-08-06T13:57:08;1.17;;;0.20;;
54745;SDS011;40640;48.130;11.356;2023-08-06T14:01:10;2.58;;;0.20;;
54745;SDS011;40640;48.130;11.356;2023-08-06T14:05:15;0.28;;;0.20;;
54745;SDS011;40640;48.130;11.356;2023-08-06T14:09:19;0.20;;;0.20;;
54745;SDS011;40640;48.130;11.356;2023-08-06T14:13:23;1.08;;;0.25;;
54745;SDS011;40640;48.130;11.356;2023-08-06T14:17:26;0.47;;;0.20;;
54745;SDS011;40640;48.130;11.356;2023-08-06T14:21:28;6.10;;;0.30;;
54745;SDS011;40640;48.130;11.356;2023-08-06T14:25:33;0.85;;;0.40;;
54745;SDS011;40640;48.130;11.356;2023-08-06T14:29:36;0.85;;;0.30;;
54745;SDS011;40640;48.130;11.356;2023-08-06T14:33:39;8.88;;;0.40;;
54745;SDS011;40640;48.130;11.356;2023-08-06T14:37:42;0.22;;;0.10;;
54745;SDS011;40640;48.130;11.356;2023-08-06T14:41:48;1.17;;;0.20;;
54745;SDS011;40640;48.130;11.356;2023-08-06T14:45:50;2.55;;;0.60;;
54745;SDS011;40640;48.130;11.356;2023-08-06T14:49:53;1.25;;;0.32;;
54745;SDS011;40640;48.130;11.356;2023-08-06T14:53:56;1.17;;;0.20;;
54745;SDS011;40640;48.130;11.356;2023-08-06T14:58:01;1.25;;;0.30;;
54745;SDS011;40640;48.130;11.356;2023-08-06T15:02:04;0.70;;;0.13;;
54745;SDS011;40640;48.130;11.356;2023-08-06T15:06:07;0.20;;;0.20;;
54745;SDS011;40640;48.130;11.356;2023-08-06T15:10:10;0.77;;;0.10;;
54745;SDS011;40640;48.130;11.356;2023-08-06T15:14:29;1.95;;;0.30;;
54745;SDS011;40640;48.130;11.356;2023-08-06T15:18:32;0.00;;;0.00;;
54745;SDS011;40640;48.130;11.356;2023-08-06T15:22:34;0.30;;;0.22;;
54745;SDS011;40640;48.130;11.356;2023-08-06T15:26:37;0.40;;;0.30;;
54745;SDS011;40640;48.130;11.356;2023-08-06T15:30:41;2.75;;;0.40;;
54745;SDS011;40640;48.130;11.356;2023-08-06T15:34:51;0.57;;;0.25;;
54745;SDS011;40640;48.130;11.356;2023-08-06T15:38:54;0.40;;;0.30;;
54745;SDS011;40640;48.130;11.356;2023-08-06T15:42:57;0.60;;;0.22;;
54745;SDS011;40640;48.130;11.356;2023-08-06T15:47:02;0.28;;;0.28;;
54745;SDS011;40640;48.130;11.356;2023-08-06T15:51:05;0.98;;;0.52;;
54745;SDS011;40640;48.130;11.356;2023-08-06T15:55:08;0.88;;;0.35;;
54745;SDS011;40640;48.130;11.356;2023-08-06T16:03:34;0.15;;;0.15;;
54745;SDS011;40640;48.130;11.356;2023-08-06T16:07:40;0.43;;;0.30;;
54745;SDS011;40640;48.130;11.356;2023-08-06T16:11:43;0.30;;;0.30;;
54745;SDS011;40640;48.130;11.356;2023-08-06T16:15:46;0.70;;;0.20;;
54745;SDS011;40640;48.130;11.356;2023-08-06T16:19:51;2.47;;;0.28;;
54745;SDS011;40640;48.130;11.356;2023-08-06T16:23:54;1.35;;;0.32;;
54745;SDS011;40640;48.130;11.356;2023-08-06T16:27:57;0.57;;;0.20;;
54745;SDS011;40640;48.130;11.356;2023-08-06T16:32:00;0.25;;;0.20;;
54745;SDS011;40640;48.130;11.356;2023-08-06T16:36:07;1.00;;;0.37;;
54745;SDS011;40640;48.130;11.356;2023-08-06T16:40:09;0.52;;;0.20;;
54745;SDS011;40640;48.130;11.356;2023-08-06T16:44:12;0.32;;;0.13;;
54745;SDS011;40640;48.130;11.356;2023-08-06T16:48:15;0.55;;;0.20;;
54745;SDS011;40640;48.130;11.356;2023-08-06T16:52:19;1.38;;;0.30;;
54745;SDS011;40640;48.130;11.356;2023-08-06T16:56:22;0.20;;;0.20;;
54745;SDS011;40640;48.130;11.356;2023-08-06T17:00:25;2.80;;;0.40;;
54745;SDS011;40640;48.130;11.356;2023-08-06T17:04:29;0.68;;;0.30;;
54745;SDS011;40640;48.130;11.356;2023-08-06T17:08:33;2.92;;;0.57;;
54745;SDS011;40640;48.130;11.356;2023-08-06T17:12:36;0.35;;;0.35;;
54745;SDS011;40640;48.130;11.356;2023-08-06T17:16:39;0.93;;;0.55;;
54745;SDS011;40640;48.130;11.356;2023-08-06T17:20:42;1.67;;;0.70;;
54745;SDS011;40640;48.130;11.356;2023-08-06T17:24:47;1.15;;;0.80;;
54745;SDS011;40640;48.130;11.356;2023-08-06T17:28:50;0.95;;;0.43;;
54745;SDS011;40640;48.130;11.356;2023-08-06T17:32:53;0.40;;;0.40;;
54745;SDS011;40640;48.130;11.356;2023-08-06T17:36:57;0.50;;;0.50;;
54745;SDS011;40640;48.130;11.356;2023-08-06T17:41:03;2.85;;;0.47;;
54745;SDS011;40640;48.130;11.356;2023-08-06T17:45:07;1.83;;;1.00;;
54745;SDS011;40640;48.130;11.356;2023-08-06T17:49:10;0.80;;;0.80;;
54745;SDS011;40640;48.130;11.356;2023-08-06T17:53:13;1.58;;;0.73;;
54745;SDS011;40640;48.130;11.356;2023-08-06T17:57:17;3.08;;;0.68;;
54745;SDS011;40640;48.130;11.356;2023-08-06T18:01:20;0.80;;;0.80;;
54745;SDS011;40640;48.130;11.356;2023-08-06T18:05:23;1.52;;;0.82;;
54745;SDS011;40640;48.130;11.356;2023-08-06T18:09:27;1.70;;;1.27;;
54745;SDS011;40640;48.130;11.356;2023-08-06T18:13:31;0.60;;;0.60;;
54745;SDS011;40640;48.130;11.356;2023-08-06T18:17:35;1.47;;;0.40;;
54745;SDS011;40640;48.130;11.356;2023-08-06T18:21:38;2.47;;;0.80;;
54745;SDS011;40640;48.130;11.356;2023-08-06T18:25:41;2.13;;;1.00;;
54745;SDS011;40640;48.130;11.356;2023-08-06T18:29:45;2.05;;;0.80;;
54745;SDS011;40640;48.130;11.356;2023-08-06T18:33:48;4.85;;;0.70;;
54745;SDS011;40640;48.130;11.356;2023-08-06T18:37:51;1.83;;;0.73;;
54745;SDS011;40640;48.130;11.356;2023-08-06T18:41:54;1.58;;;0.70;;
54745;SDS011;40640;48.130;11.356;2023-08-06T18:45:58;1.23;;;1.00;;
54745;SDS011;40640;48.130;11.356;2023-08-06T18:50:01;4.97;;;1.35;;
54745;SDS011;40640;48.130;11.356;2023-08-06T18:54:04;1.30;;;1.10;;
54745;SDS011;40640;48.130;11.356;2023-08-06T18:58:06;1.95;;;0.85;;
54745;SDS011;40640;48.130;11.356;2023-08-06T19:02:11;2.20;;;1.00;;
54745;SDS011;40640;48.130;11.356;2023-08-06T19:06:14;1.55;;;1.38;;
54745;SDS011;40640;48.130;11.356;2023-08-06T19:10:17;2.15;;;1.10;;
54745;SDS011;40640;48.130;11.356;2023-08-06T19:14:22;1.50;;;1.05;;
54745;SDS011;40640;48.130;11.356;2023-08-06T19:18:28;1.80;;;1.58;;
54745;SDS011;40640;48.130;11.356;2023-08-06T19:22:31;1.67;;;1.20;;
54745;SDS011;40640;48.130;11.356;2023-08-06T19:26:34;1.35;;;1.00;;
54745;SDS011;40640;48.130;11.356;2023-08-06T19:30:37;0.90;;;0.90;;
54745;SDS011;40640;48.130;11.356;2023-08-06T19:34:42;1.55;;;1.23;;
54745;SDS011;40640;48.130;11.356;2023-08-06T19:38:45;1.63;;;1.25;;
54745;SDS011;40640;48.130;11.356;2023-08-06T19:42:48;2.15;;;1.10;;
54745;SDS011;40640;48.130;11.356;2023-08-06T19:46:51;1.50;;;1.40;;
54745;SDS011;40640;48.130;11.356;2023-08-06T19:50:56;2.20;;;1.23;;
54745;SDS011;40640;48.130;11.356;2023-08-06T19:55:02;1.58;;;0.95;;
54745;SDS011;40640;48.130;11.356;2023-08-06T19:59:06;1.45;;;1.10;;
54745;SDS011;40640;48.130;11.356;2023-08-06T20:03:09;1.20;;;1.10;;
54745;SDS011;40640;48.130;11.356;2023-08-06T20:07:15;1.00;;;0.85;;
54745;SDS011;40640;48.130;11.356;2023-08-06T20:11:18;1.45;;;0.93;;
54745;SDS011;40640;48.130;11.356;2023-08-06T20:15:21;1.83;;;1.40;;
54745;SDS011;40640;48.130;11.356;2023-08-06T20:19:24;1.10;;;0.90;;
54745;SDS011;40640;48.130;11.356;2023-08-06T20:23:29;2.90;;;0.88;;
54745;SDS011;40640;48.130;11.356;2023-08-06T20:27:32;1.65;;;0.93;;
54745;SDS011;40640;48.130;11.356;2023-08-06T20:31:35;1.17;;;0.80;;
54745;SDS011;40640;48.130;11.356;2023-08-06T20:35:38;2.85;;;0.93;;
54745;SDS011;40640;48.130;11.356;2023-08-06T20:39:44;1.05;;;0.82;;
54745;SDS011;40640;48.130;11.356;2023-08-06T20:43:47;1.73;;;0.90;;
54745;SDS011;40640;48.130;11.356;2023-08-06T20:47:50;1.23;;;0.95;;
54745;SDS011;40640;48.130;11.356;2023-08-06T20:51:53;1.73;;;0.90;;
54745;SDS011;40640;48.130;11.356;2023-08-06T20:56:01;1.23;;;1.10;;
54745;SDS011;40640;48.130;11.356;2023-08-06T21:00:05;1.52;;;1.00;;
54745;SDS011;40640;48.130;11.356;2023-08-06T21:04:09;2.35;;;1.02;;
54745;SDS011;40640;48.130;11.356;2023-08-06T21:08:12;1.65;;;1.02;;
54745;SDS011;40640;48.130;11.356;2023-08-06T21:12:16;3.45;;;1.10;;
54745;SDS011;40640;48.130;11.356;2023-08-06T21:16:19;3.75;;;1.52;;
54745;SDS011;40640;48.130;11.356;2023-08-06T21:20:22;3.38;;;1.23;;
54745;SDS011;40640;48.130;11.356;2023-08-06T21:24:25;3.92;;;1.60;;
54745;SDS011;40640;48.130;11.356;2023-08-06T21:28:30;3.80;;;1.40;;
54745;SDS011;40640;48.130;11.356;2023-08-06T21:32:34;3.13;;;1.17;;
54745;SDS011;40640;48.130;11.356;2023-08-06T21:36:36;4.38;;;1.00;;
54745;SDS011;40640;48.130;11.356;2023-08-06T21:40:39;1.25;;;1.05;;
54745;SDS011;40640;48.130;11.356;2023-08-06T21:44:44;1.15;;;1.05;;
54745;SDS011;40640;48.130;11.356;2023-08-06T21:48:47;2.88;;;1.50;;
54745;SDS011;40640;48.130;11.356;2023-08-06T21:52:51;3.63;;;1.25;;
54745;SDS011;40640;48.130;11.356;2023-08-06T21:56:54;1.40;;;1.10;;
54745;SDS011;40640;48.130;11.356;2023-08-06T22:00:58;1.95;;;1.13;;
54745;SDS011;40640;48.130;11.356;2023-08-06T22:05:01;1.38;;;1.17;;
54745;SDS011;40640;48.130;11.356;2023-08-06T22:09:04;3.10;;;1.20;;
54745;SDS011;40640;48.130;11.356;2023-08-06T22:13:07;1.88;;;1.40;;
54745;SDS011;40640;48.130;11.356;2023-08-06T22:17:11;1.45;;;0.95;;
54745;SDS011;40640;48.130;11.356;2023-08-06T22:21:14;2.28;;;1.20;;
54745;SDS011;40640;48.130;11.356;2023-08-06T22:25:17;1.98;;;1.08;;
54745;SDS011;40640;48.130;11.356;2023-08-06T22:29:20;1.55;;;0.82;;
54745;SDS011;40640;48.130;11.356;2023-08-06T22:33:24;2.90;;;1.08;;
54745;SDS011;40640;48.130;11.356;2023-08-06T22:37:31;2.03;;;1.20;;
54745;SDS011;40640;48.130;11.356;2023-08-06T22:41:34;2.60;;;0.80;;
54745;SDS011;40640;48.130;11.356;2023-08-06T22:45:37;3.83;;;1.20;;
54745;SDS011;40640;48.130;11.356;2023-08-06T22:49:41;4.72;;;1.02;;
54745;SDS011;40640;48.130;11.356;2023-08-06T22:53:44;2.22;;;0.93;;
54745;SDS011;40640;48.130;11.356;2023-08-06T22:57:47;2.08;;;0.75;;
54745;SDS011;40640;48.130;11.356;2023-08-06T23:01:50;2.70;;;0.90;;
54745;SDS011;40640;48.130;11.356;2023-08-06T23:05:55;2.13;;;1.17;;
54745;SDS011;40640;48.130;11.356;2023-08-06T23:09:58;2.22;;;1.00;;
54745;SDS011;40640;48.130;11.356;2023-08-06T23:14:01;1.73;;;1.08;;
54745;SDS011;40640;48.130;11.356;2023-08-06T23:18:05;0.82;;;0.80;;
54745;SDS011;40640;48.130;11.356;2023-08-06T23:22:10;3.28;;;1.08;;
54745;SDS011;40640;48.130;11.356;2023-08-06T23:26:13;5.90;;;1.20;;
54745;SDS011;40640;48.130;11.356;2023-08-06T23:30:16;4.50;;;0.90;;
54745;SDS011;40640;48.130;11.356;2023-08-06T23:34:19;1.17;;;0.88;;
54745;SDS011;40640;48.130;11.356;2023-08-06T23:38:23;1.65;;;1.10;;
54745;SDS011;40640;48.130;11.356;2023-08-06T23:42:26;0.93;;;0.80;;
54745;SDS011;40640;48.130;11.356;2023-08-06T23:46:29;2.35;;;0.80;;
54745;SDS011;40640;48.130;11.356;2023-08-06T23:50:32;2.53;;;1.15;;
54745;SDS011;40640;48.130;11.356;2023-08-06T23:54:36;1.88;;;0.93;;
54745;SDS011;40640;48.130;11.356;2023-08-06T23:58:41;2.13;;;0.80;;
